Time;durP1;ratioP1;P1;durP2;ratioP2;P2;SDS_P1;SDS_P2;PMS_P1;PMS_P2;Temp;Humidity;BMP_temperature;BMP_pressure;BME280_temperature;BME280_humidity;BME280_pressure;Samples;Min_cycle;Max_cycle;Signal;HPM_P1;HPM_P2
2022/10/20 00:02:08;;;;;;;8.4;4.4;;;;;;;;;;;;;
2022/10/20 00:04:34;;;;;;;10.5;4.7;;;;;;;;;;;;;
2022/10/20 00:06:59;;;;;;;6.9;4.4;;;;;;;;;;;;;
2022/10/20 00:09:25;;;;;;;7.3;4.2;;;;;;;;;;;;;
2022/10/20 00:11:50;;;;;;;7.9;4.2;;;;;;;;;;;;;
2022/10/20 00:14:16;;;;;;;5.8;4.1;;;;;;;;;;;;;
2022/10/20 00:16:41;;;;;;;6.3;3.9;;;;;;;;;;;;;
2022/10/20 00:19:06;;;;;;;6.6;4.1;;;;;;;;;;;;;
2022/10/20 00:21:31;;;;;;;5.3;4.2;;;;;;;;;;;;;
2022/10/20 00:23:56;;;;;;;5.6;4.3;;;;;;;;;;;;;
2022/10/20 00:26:21;;;;;;;7.1;4.4;;;;;;;;;;;;;
2022/10/20 00:28:47;;;;;;;5.8;4.2;;;;;;;;;;;;;
2022/10/20 00:31:12;;;;;;;8.1;4;;;;;;;;;;;;;
2022/10/20 00:33:37;;;;;;;6.5;4;;;;;;;;;;;;;
2022/10/20 00:36:05;;;;;;;8.2;4.1;;;;;;;;;;;;;
2022/10/20 00:38:30;;;;;;;7;4.1;;;;;;;;;;;;;
2022/10/20 00:40:58;;;;;;;8.5;4.3;;;;;;;;;;;;;
2022/10/20 00:43:22;;;;;;;5.6;3.9;;;;;;;;;;;;;
2022/10/20 00:45:47;;;;;;;6;3.6;;;;;;;;;;;;;
2022/10/20 00:48:14;;;;;;;7;4.3;;;;;;;;;;;;;
2022/10/20 00:50:40;;;;;;;7.1;3.8;;;;;;;;;;;;;
2022/10/20 00:53:05;;;;;;;4.4;3.5;;;;;;;;;;;;;
2022/10/20 00:55:30;;;;;;;5.6;3.7;;;;;;;;;;;;;
2022/10/20 00:57:55;;;;;;;4.6;3.9;;;;;;;;;;;;;
2022/10/20 01:00:21;;;;;;;6.2;4;;;;;;;;;;;;;
2022/10/20 01:02:46;;;;;;;4.4;3.3;;;;;;;;;;;;;
2022/10/20 01:05:12;;;;;;;6;3.8;;;;;;;;;;;;;
2022/10/20 01:07:37;;;;;;;7.1;3.9;;;;;;;;;;;;;
2022/10/20 01:10:03;;;;;;;6.1;3.7;;;;;;;;;;;;;
2022/10/20 01:12:30;;;;;;;6.2;4;;;;;;;;;;;;;
2022/10/20 01:14:55;;;;;;;6.2;3.6;;;;;;;;;;;;;
2022/10/20 01:17:22;;;;;;;4.7;3.7;;;;;;;;;;;;;
2022/10/20 01:19:45;;;;;;;6;3.9;;;;;;;;;;;;;
2022/10/20 01:22:10;;;;;;;7.6;4.2;;;;;;;;;;;;;
2022/10/20 01:27:01;;;;;;;6.5;3.9;;;;;;;;;;;;;
2022/10/20 01:29:26;;;;;;;6;3.9;;;;;;;;;;;;;
2022/10/20 01:31:51;;;;;;;5;3.3;;;;;;;;;;;;;
2022/10/20 01:34:17;;;;;;;8.5;4.4;;;;;;;;;;;;;
2022/10/20 01:36:42;;;;;;;7.8;3.9;;;;;;;;;;;;;
2022/10/20 01:39:10;;;;;;;5.4;3.7;;;;;;;;;;;;;
2022/10/20 01:41:35;;;;;;;7.3;4.3;;;;;;;;;;;;;
2022/10/20 01:44:03;;;;;;;7.2;4.1;;;;;;;;;;;;;
2022/10/20 01:46:29;;;;;;;5.9;4;;;;;;;;;;;;;
2022/10/20 01:48:57;;;;;;;6.5;3.7;;;;;;;;;;;;;
2022/10/20 01:51:22;;;;;;;6.8;3.9;;;;;;;;;;;;;
2022/10/20 01:53:49;;;;;;;5.3;3.6;;;;;;;;;;;;;
2022/10/20 01:56:14;;;;;;;7.1;4;;;;;;;;;;;;;
2022/10/20 01:58:39;;;;;;;5.8;3.4;;;;;;;;;;;;;
2022/10/20 02:01:05;;;;;;;7.1;3.8;;;;;;;;;;;;;
2022/10/20 02:03:30;;;;;;;6.4;3.8;;;;;;;;;;;;;
2022/10/20 02:05:55;;;;;;;5.7;3.7;;;;;;;;;;;;;
2022/10/20 02:08:20;;;;;;;7.7;3.8;;;;;;;;;;;;;
2022/10/20 02:10:45;;;;;;;7.6;3.6;;;;;;;;;;;;;
2022/10/20 02:13:10;;;;;;;7.3;4;;;;;;;;;;;;;
2022/10/20 02:15:35;;;;;;;6.3;3.6;;;;;;;;;;;;;
2022/10/20 02:18:03;;;;;;;7.9;4.3;;;;;;;;;;;;;
2022/10/20 02:20:28;;;;;;;5.8;3.4;;;;;;;;;;;;;
2022/10/20 02:22:54;;;;;;;5.8;3.6;;;;;;;;;;;;;
2022/10/20 02:25:20;;;;;;;4.9;3.4;;;;;;;;;;;;;
2022/10/20 02:27:47;;;;;;;5.3;3.2;;;;;;;;;;;;;
2022/10/20 02:30:12;;;;;;;4.6;3.5;;;;;;;;;;;;;
2022/10/20 02:32:37;;;;;;;5.6;3.4;;;;;;;;;;;;;
2022/10/20 02:35:03;;;;;;;4;2.9;;;;;;;;;;;;;
2022/10/20 02:37:32;;;;;;;4.5;3.2;;;;;;;;;;;;;
2022/10/20 02:40:00;;;;;;;4.2;3.1;;;;;;;;;;;;;
2022/10/20 03:51:52;;;;;;;5.8;3.2;;;;;;;;;;;;;
2022/10/20 03:54:17;;;;;;;4.8;2.9;;;;;;;;;;;;;
2022/10/20 03:56:45;;;;;;;5.5;2.7;;;;;;;;;;;;;
2022/10/20 03:59:10;;;;;;;4.6;2.9;;;;;;;;;;;;;
2022/10/20 04:02:41;;;;;;;6.3;3.2;;;;;;;10.85;95.88672;940.0701;;;;
2022/10/20 04:05:12;;;;;;;4;2.7;;;;;;;10.85;95.62305;940.0598;;;;
2022/10/20 04:07:45;;;;;;;5.4;3;;;;;;;10.75;96.02637;940.1071;;;;
2022/10/20 04:10:14;;;;;;;5.8;2.9;;;;;;;10.7;96.15137;940.1103;;;;
2022/10/20 04:12:44;;;;;;;6.2;3.7;;;;;;;10.71;96.03906;940.038;;;;
2022/10/20 04:15:25;;;;;;;7.9;3.5;;;;;;;10.74;95.51953;940.0782;;;;
2022/10/20 04:17:51;;;;;;;7.5;3.6;;;;;;;10.65;95.73926;940.0206;;;;
2022/10/20 04:20:17;;;;;;;6.8;3.1;;;;;;;10.62;95.72168;940.0059;;;;
2022/10/20 04:22:49;;;;;;;5.2;3.5;;;;;;;10.7;95.6582;939.8571;;;;
2022/10/20 04:25:20;;;;;;;3.9;2.8;;;;;;;10.8;94.7793;939.8439;;;;
2022/10/20 04:27:50;;;;;;;5.7;3.6;;;;;;;10.62;95.66309;939.9167;;;;
2022/10/20 04:30:22;;;;;;;11.1;5.9;;;;;;;10.68;95.8252;939.7988;;;;
2022/10/20 04:32:53;;;;;;;8.7;4.8;;;;;;;10.82;94.71484;939.9034;;;;
2022/10/20 04:38:38;;;;;;;10.9;5.8;;;;;;;10.4;96.43652;939.8561;;;;
2022/10/20 04:41:03;;;;;;;10.6;4.8;;;;;;;10.52;95.69824;939.8396;;;;
2022/10/20 04:43:35;;;;;;;11.6;5;;;;;;;10.62;95.04785;939.8786;;;;
2022/10/20 04:46:05;;;;;;;7;4.7;;;;;;;10.64;94.12695;939.8429;;;;
2022/10/20 04:48:36;;;;;;;10.6;4;;;;;;;10.65;94.04883;939.8112;;;;
2022/10/20 04:51:03;;;;;;;8.8;3.6;;;;;;;10.53;94.33203;939.8349;;;;
2022/10/20 04:53:28;;;;;;;8.2;3.7;;;;;;;10.52;94.47852;939.7894;;;;
2022/10/20 04:55:58;;;;;;;5.9;2.4;;;;;;;10.99;92.74121;939.7155;;;;
2022/10/20 04:58:27;;;;;;;5.2;2.6;;;;;;;10.85;92.20703;939.6216;;;;
2022/10/20 05:00:53;;;;;;;5.7;3.3;;;;;;;10.57;93.76855;939.755;;;;
2022/10/20 05:03:19;;;;;;;5.5;3.3;;;;;;;10.7;92.89355;939.697;;;;
2022/10/20 05:05:46;;;;;;;6.8;3.1;;;;;;;10.5;93.70996;939.7637;;;;
2022/10/20 05:08:13;;;;;;;7.2;3.4;;;;;;;10.48;94.11426;939.7372;;;;
2022/10/20 05:10:44;;;;;;;5.3;2.9;;;;;;;10.65;93.25;939.7609;;;;
2022/10/20 05:13:09;;;;;;;7.1;4;;;;;;;10.64;92.85938;939.7266;;;;
2022/10/20 05:19:03;;;;;;;5.3;4;;;;;;;10.51;93.20898;939.7933;;;;
2022/10/20 05:21:28;;;;;;;6.3;4.1;;;;;;;10.43;93.60254;939.7517;;;;
2022/10/20 05:23:55;;;;;;;8.7;4.9;;;;;;;10.28;93.84277;939.6763;;;;
2022/10/20 05:26:20;;;;;;;12.2;4.8;;;;;;;10.27;94.38867;939.65;;;;
2022/10/20 05:29:02;;;;;;;7.8;4.9;;;;;;;10.32;94.22949;939.6713;;;;
2022/10/20 05:31:30;;;;;;;5.5;3.2;;;;;;;10.21;94.40918;939.6739;;;;
2022/10/20 05:33:55;;;;;;;6.8;3.3;;;;;;;10.26;94.27246;939.6372;;;;
2022/10/20 05:36:20;;;;;;;6.8;3.5;;;;;;;10.23;94.35645;939.5986;;;;
2022/10/20 05:38:53;;;;;;;7.3;4;;;;;;;10.29;94.11914;939.6216;;;;
2022/10/20 05:41:23;;;;;;;7.1;4.3;;;;;;;10.18;94.12988;939.6578;;;;
2022/10/20 05:43:49;;;;;;;9.8;5.5;;;;;;;10.11;95.40234;939.6091;;;;
2022/10/20 05:47:00;;;;;;;14.1;5.9;;;;;;;10.14;95.5918;939.5809;;;;
2022/10/20 05:49:23;;;;;;;11.2;4.9;;;;;;;10.28;94.2998;939.5259;;;;
2022/10/20 05:51:52;;;;;;;8.5;4.6;;;;;;;10.26;94.125;939.6443;;;;
2022/10/20 05:54:21;;;;;;;9.4;4.4;;;;;;;10.35;93.72168;939.6287;;;;
2022/10/20 05:56:45;;;;;;;8.2;4.2;;;;;;;10.38;93.08887;939.6545;;;;
2022/10/20 05:59:15;;;;;;;8.6;3.7;;;;;;;10.29;93.35645;939.5986;;;;
2022/10/20 06:01:48;;;;;;;7.4;2.8;;;;;;;10.09;94.48633;939.6049;;;;
2022/10/20 06:04:22;;;;;;;6.5;3;;;;;;;10.11;94.70703;939.6942;;;;
2022/10/20 06:06:49;;;;;;;6.5;3.2;;;;;;;10.16;94.19238;939.6583;;;;
2022/10/20 06:09:14;;;;;;;7;3.5;;;;;;;10.18;94.16406;939.7206;;;;
2022/10/20 06:11:44;;;;;;;7.2;3.7;;;;;;;10.23;94.15137;939.6964;;;;
2022/10/20 06:14:16;;;;;;;6.8;3.4;;;;;;;10.31;93.70117;939.7221;;;;
2022/10/20 06:16:44;;;;;;;6.1;3.3;;;;;;;10.38;94.03613;939.7603;;;;
2022/10/20 06:19:09;;;;;;;6.8;3.6;;;;;;;10.56;93.66406;939.7556;;;;
2022/10/20 06:21:36;;;;;;;7;3.2;;;;;;;10.84;91.78223;939.7378;;;;
2022/10/20 06:24:02;;;;;;;6.4;3.3;;;;;;;10.97;90.29102;939.7855;;;;
2022/10/20 06:26:31;;;;;;;6.8;2.7;;;;;;;11.18;89.97949;939.7974;;;;
2022/10/20 06:28:54;;;;;;;5;2.4;;;;;;;11.43;88.7168;939.7978;;;;
2022/10/20 06:31:23;;;;;;;6.3;2.6;;;;;;;11.73;87.2207;939.81;;;;
2022/10/20 06:33:48;;;;;;;7.2;2.8;;;;;;;11.87;85.98828;939.7191;;;;
2022/10/20 06:36:22;;;;;;;4.9;2.7;;;;;;;11.96;85.76563;939.7603;;;;
2022/10/20 06:38:47;;;;;;;8.7;3.2;;;;;;;12.12;85.14453;939.7249;;;;
2022/10/20 06:41:17;;;;;;;7.8;2.4;;;;;;;12.2;84.27734;939.6942;;;;
2022/10/20 06:43:45;;;;;;;6.3;2.9;;;;;;;;;;;;;
2022/10/20 06:46:10;;;;;;;4.9;2.6;;;;;;;;;;;;;
2022/10/20 06:48:35;;;;;;;7.5;2.5;;;;;;;;;;;;;
2022/10/20 06:51:01;;;;;;;5.1;2.2;;;;;;;;;;;;;
2022/10/20 06:53:27;;;;;;;7.1;2.7;;;;;;;;;;;;;
2022/10/20 06:55:52;;;;;;;6.5;2.5;;;;;;;;;;;;;
2022/10/20 06:58:17;;;;;;;4.3;2.5;;;;;;;;;;;;;
2022/10/20 07:00:42;;;;;;;4;2.2;;;;;;;;;;;;;
2022/10/20 07:03:07;;;;;;;5.8;2.7;;;;;;;;;;;;;
2022/10/20 07:05:34;;;;;;;8.4;2.6;;;;;;;;;;;;;
2022/10/20 07:07:59;;;;;;;5.6;2.6;;;;;;;;;;;;;
2022/10/20 07:10:24;;;;;;;4.7;2.2;;;;;;;;;;;;;
2022/10/20 07:12:49;;;;;;;5.8;2.4;;;;;;;;;;;;;
2022/10/20 07:15:16;;;;;;;4.6;2.4;;;;;;;;;;;;;
2022/10/20 07:17:41;;;;;;;4;2.3;;;;;;;;;;;;;
2022/10/20 07:20:07;;;;;;;3.9;2.1;;;;;;;;;;;;;
2022/10/20 07:22:32;;;;;;;6.6;2.4;;;;;;;;;;;;;
2022/10/20 07:25:04;;;;;;;3.9;2.4;;;;;;;;;;;;;
2022/10/20 07:27:24;;;;;;;5.9;2.6;;;;;;;;;;;;;
2022/10/20 07:29:50;;;;;;;9.2;2.9;;;;;;;;;;;;;
2022/10/20 07:32:15;;;;;;;6.2;2.5;;;;;;;;;;;;;
2022/10/20 07:34:42;;;;;;;4.6;2.3;;;;;;;;;;;;;
2022/10/20 07:37:07;;;;;;;4.5;2.1;;;;;;;;;;;;;
2022/10/20 07:39:33;;;;;;;4.7;2;;;;;;;;;;;;;
2022/10/20 07:41:58;;;;;;;7.3;2.4;;;;;;;;;;;;;
2022/10/20 07:44:25;;;;;;;4.7;2.2;;;;;;;;;;;;;
2022/10/20 07:46:50;;;;;;;7.5;3.7;;;;;;;;;;;;;
2022/10/20 07:49:15;;;;;;;5.9;2.8;;;;;;;;;;;;;
2022/10/20 07:51:40;;;;;;;6.8;2.4;;;;;;;;;;;;;
2022/10/20 07:54:07;;;;;;;6.4;2.2;;;;;;;;;;;;;
2022/10/20 07:56:32;;;;;;;7.1;2.5;;;;;;;;;;;;;
2022/10/20 07:58:57;;;;;;;7.4;3.5;;;;;;;;;;;;;
2022/10/20 08:01:23;;;;;;;9;3.3;;;;;;;;;;;;;
2022/10/20 08:03:49;;;;;;;5.6;3.3;;;;;;;;;;;;;
2022/10/20 08:06:14;;;;;;;5.7;2.8;;;;;;;;;;;;;
2022/10/20 08:08:40;;;;;;;6.5;2.7;;;;;;;;;;;;;
2022/10/20 08:11:05;;;;;;;6.4;2;;;;;;;;;;;;;
2022/10/20 08:13:31;;;;;;;4.1;2;;;;;;;;;;;;;
2022/10/20 08:15:56;;;;;;;7.1;2.6;;;;;;;;;;;;;
2022/10/20 08:18:22;;;;;;;4.3;2;;;;;;;;;;;;;
2022/10/20 08:20:47;;;;;;;4.9;2.1;;;;;;;;;;;;;
2022/10/20 08:23:14;;;;;;;5.5;2.3;;;;;;;;;;;;;
2022/10/20 08:25:39;;;;;;;4.2;2.3;;;;;;;;;;;;;
2022/10/20 08:28:04;;;;;;;3.5;1.6;;;;;;;;;;;;;
2022/10/20 08:30:29;;;;;;;5.3;1.9;;;;;;;;;;;;;
2022/10/20 08:32:56;;;;;;;4.7;2;;;;;;;;;;;;;
2022/10/20 08:35:21;;;;;;;5.6;1.6;;;;;;;;;;;;;
2022/10/20 08:37:48;;;;;;;4.5;1.6;;;;;;;;;;;;;
2022/10/20 08:40:15;;;;;;;4.9;1.6;;;;;;;;;;;;;
2022/10/20 08:42:40;;;;;;;3.6;1.7;;;;;;;;;;;;;
2022/10/20 08:45:05;;;;;;;6;1.6;;;;;;;;;;;;;
2022/10/20 08:47:35;;;;;;;4.1;1.8;;;;;;;;;;;;;
2022/10/20 08:50:00;;;;;;;2.2;1.3;;;;;;;;;;;;;
2022/10/20 08:52:25;;;;;;;4.7;1.7;;;;;;;;;;;;;
2022/10/20 08:54:50;;;;;;;3.7;1.3;;;;;;;;;;;;;
2022/10/20 08:57:18;;;;;;;5;1.6;;;;;;;;;;;;;
2022/10/20 08:59:43;;;;;;;3.7;1.4;;;;;;;;;;;;;
2022/10/20 09:02:08;;;;;;;5.8;1.5;;;;;;;;;;;;;
2022/10/20 09:04:34;;;;;;;5.8;1.5;;;;;;;;;;;;;
2022/10/20 09:06:59;;;;;;;6.1;1.8;;;;;;;;;;;;;
2022/10/20 09:09:24;;;;;;;3.1;1.6;;;;;;;;;;;;;
2022/10/20 09:11:49;;;;;;;2.6;1.5;;;;;;;;;;;;;
2022/10/20 09:14:15;;;;;;;4.6;1.4;;;;;;;;;;;;;
2022/10/20 09:16:40;;;;;;;4;1.9;;;;;;;;;;;;;
2022/10/20 09:19:06;;;;;;;3.5;1.6;;;;;;;;;;;;;
2022/10/20 09:21:32;;;;;;;4.3;1.4;;;;;;;;;;;;;
2022/10/20 09:23:57;;;;;;;2.7;1.4;;;;;;;;;;;;;
2022/10/20 09:26:22;;;;;;;3.5;1.5;;;;;;;;;;;;;
2022/10/20 09:28:47;;;;;;;3.8;2;;;;;;;;;;;;;
2022/10/20 09:31:13;;;;;;;3.8;1.5;;;;;;;;;;;;;
2022/10/20 09:33:38;;;;;;;4.4;1.6;;;;;;;;;;;;;
2022/10/20 09:36:03;;;;;;;4.6;1.5;;;;;;;;;;;;;
2022/10/20 09:38:28;;;;;;;4;1.3;;;;;;;;;;;;;
2022/10/20 09:40:53;;;;;;;2.5;1.3;;;;;;;;;;;;;
2022/10/20 09:43:19;;;;;;;3.3;1.3;;;;;;;;;;;;;
2022/10/20 09:45:44;;;;;;;2.9;1.3;;;;;;;;;;;;;
2022/10/20 09:48:11;;;;;;;8.6;2.7;;;;;;;;;;;;;
2022/10/20 09:50:36;;;;;;;3.2;1.6;;;;;;;;;;;;;
2022/10/20 09:53:01;;;;;;;4.4;1.8;;;;;;;;;;;;;
2022/10/20 09:55:27;;;;;;;4.9;2;;;;;;;;;;;;;
2022/10/20 09:57:52;;;;;;;6.3;1.9;;;;;;;;;;;;;
2022/10/20 10:00:17;;;;;;;3.8;1.5;;;;;;;;;;;;;
2022/10/20 10:02:42;;;;;;;3.1;1.1;;;;;;;;;;;;;
2022/10/20 10:05:10;;;;;;;4.1;1.5;;;;;;;;;;;;;
2022/10/20 10:07:36;;;;;;;4.9;1.8;;;;;;;;;;;;;
2022/10/20 10:10:02;;;;;;;3.9;1.4;;;;;;;;;;;;;
2022/10/20 10:12:27;;;;;;;5;1.8;;;;;;;;;;;;;
2022/10/20 10:14:53;;;;;;;2.5;1.4;;;;;;;;;;;;;
2022/10/20 10:17:20;;;;;;;5.5;1.3;;;;;;;;;;;;;
2022/10/20 10:19:45;;;;;;;4;1.7;;;;;;;;;;;;;
2022/10/20 10:22:11;;;;;;;2.5;1.3;;;;;;;;;;;;;
2022/10/20 10:24:37;;;;;;;4.6;1.5;;;;;;;;;;;;;
2022/10/20 10:27:03;;;;;;;4;1.5;;;;;;;;;;;;;
2022/10/20 10:29:27;;;;;;;4.1;1.6;;;;;;;;;;;;;
2022/10/20 10:31:53;;;;;;;3.5;1.3;;;;;;;;;;;;;
2022/10/20 10:34:18;;;;;;;3.6;1.1;;;;;;;;;;;;;
2022/10/20 10:36:43;;;;;;;3.8;1.5;;;;;;;;;;;;;
2022/10/20 10:39:11;;;;;;;4.8;1.4;;;;;;;;;;;;;
2022/10/20 10:42:17;;;;;;;4.5;1.6;;;;;;;;;;;;;
2022/10/20 10:44:33;;;;;;;5.2;1.5;;;;;;;;;;;;;
2022/10/20 10:46:58;;;;;;;3;1.3;;;;;;;;;;;;;
2022/10/20 10:49:23;;;;;;;2.4;1.3;;;;;;;;;;;;;
2022/10/20 10:51:48;;;;;;;7.7;1.4;;;;;;;;;;;;;
2022/10/20 10:54:13;;;;;;;5.5;1.5;;;;;;;;;;;;;
2022/10/20 10:56:38;;;;;;;3.6;1.3;;;;;;;;;;;;;
2022/10/20 10:59:05;;;;;;;6.4;1.6;;;;;;;;;;;;;
2022/10/20 11:01:30;;;;;;;3.4;1.3;;;;;;;;;;;;;
2022/10/20 11:03:55;;;;;;;5.9;1.7;;;;;;;;;;;;;
2022/10/20 11:06:20;;;;;;;3.3;1.4;;;;;;;;;;;;;
2022/10/20 11:08:46;;;;;;;4.9;1.8;;;;;;;;;;;;;
2022/10/20 11:11:11;;;;;;;4.6;1.6;;;;;;;;;;;;;
2022/10/20 11:13:36;;;;;;;3.7;1.7;;;;;;;;;;;;;
2022/10/20 11:16:01;;;;;;;7.4;2.3;;;;;;;;;;;;;
2022/10/20 11:18:26;;;;;;;3.8;2;;;;;;;;;;;;;
2022/10/20 11:20:51;;;;;;;5.6;1.9;;;;;;;;;;;;;
2022/10/20 11:23:16;;;;;;;7;2.4;;;;;;;;;;;;;
2022/10/20 11:25:43;;;;;;;5.4;2.2;;;;;;;;;;;;;
2022/10/20 11:28:07;;;;;;;5.7;1.6;;;;;;;;;;;;;
2022/10/20 11:30:32;;;;;;;5;2.3;;;;;;;;;;;;;
2022/10/20 11:33:00;;;;;;;5.2;1.6;;;;;;;;;;;;;
2022/10/20 11:35:25;;;;;;;4.4;1.6;;;;;;;;;;;;;
2022/10/20 11:37:52;;;;;;;6.1;1.8;;;;;;;;;;;;;
2022/10/20 11:40:17;;;;;;;6.3;2.1;;;;;;;;;;;;;
2022/10/20 11:42:42;;;;;;;5.2;1.6;;;;;;;;;;;;;
2022/10/20 11:45:07;;;;;;;158.1;14.7;;;;;;;;;;;;;
2022/10/20 11:47:32;;;;;;;11;2.1;;;;;;;;;;;;;
2022/10/20 11:49:57;;;;;;;5.1;1.6;;;;;;;;;;;;;
2022/10/20 11:52:23;;;;;;;4.2;1.5;;;;;;;;;;;;;
2022/10/20 11:54:48;;;;;;;6.7;1.8;;;;;;;;;;;;;
2022/10/20 11:57:14;;;;;;;3.5;1.1;;;;;;;;;;;;;
2022/10/20 11:59:39;;;;;;;5.9;1.8;;;;;;;;;;;;;
2022/10/20 12:02:04;;;;;;;4.7;1.5;;;;;;;;;;;;;
2022/10/20 12:04:29;;;;;;;4.4;1.7;;;;;;;;;;;;;
2022/10/20 12:06:54;;;;;;;4;1.6;;;;;;;;;;;;;
2022/10/20 12:09:20;;;;;;;6;2.2;;;;;;;;;;;;;
2022/10/20 12:11:44;;;;;;;5;1.7;;;;;;;;;;;;;
2022/10/20 12:14:10;;;;;;;6.7;1.8;;;;;;;;;;;;;
2022/10/20 12:16:35;;;;;;;9.2;1.4;;;;;;;;;;;;;
2022/10/20 12:19:03;;;;;;;3.1;1.5;;;;;;;;;;;;;
2022/10/20 12:21:28;;;;;;;4.4;2.1;;;;;;;;;;;;;
2022/10/20 12:24:01;;;;;;;4.5;1.9;;;;;;;;;;;;;
2022/10/20 12:26:18;;;;;;;4.6;2.3;;;;;;;;;;;;;
2022/10/20 12:28:44;;;;;;;4.6;1.6;;;;;;;;;;;;;
2022/10/20 12:31:09;;;;;;;4.2;1.8;;;;;;;;;;;;;
2022/10/20 12:33:34;;;;;;;3.9;1.9;;;;;;;;;;;;;
2022/10/20 12:35:59;;;;;;;3.8;2.2;;;;;;;;;;;;;
2022/10/20 12:38:44;;;;;;;7.8;1.5;;;;;;;;;;;;;
2022/10/20 12:41:10;;;;;;;2.4;1.6;;;;;;;;;;;;;
2022/10/20 12:43:35;;;;;;;3.5;1.8;;;;;;;;;;;;;
2022/10/20 12:46:02;;;;;;;4.2;1.8;;;;;;;;;;;;;
2022/10/20 12:48:29;;;;;;;4;1.6;;;;;;;;;;;;;
2022/10/20 12:50:53;;;;;;;3.5;2.1;;;;;;;;;;;;;
2022/10/20 12:53:19;;;;;;;2.3;1.5;;;;;;;;;;;;;
2022/10/20 12:55:44;;;;;;;1.9;1.7;;;;;;;;;;;;;
2022/10/20 12:58:09;;;;;;;3.4;1.8;;;;;;;;;;;;;
2022/10/20 13:00:34;;;;;;;2.9;1.8;;;;;;;;;;;;;
2022/10/20 13:02:59;;;;;;;4.3;2;;;;;;;;;;;;;
2022/10/20 13:05:25;;;;;;;5;2.2;;;;;;;;;;;;;
2022/10/20 13:07:52;;;;;;;2.6;1.7;;;;;;;;;;;;;
2022/10/20 13:10:17;;;;;;;3.1;2;;;;;;;;;;;;;
2022/10/20 13:12:45;;;;;;;2.8;1.8;;;;;;;;;;;;;
2022/10/20 13:15:11;;;;;;;3.8;2;;;;;;;;;;;;;
2022/10/20 13:17:36;;;;;;;5.8;2.2;;;;;;;;;;;;;
2022/10/20 13:20:00;;;;;;;2.2;2;;;;;;;;;;;;;
2022/10/20 13:22:25;;;;;;;5.3;2.3;;;;;;;;;;;;;
2022/10/20 13:24:51;;;;;;;4.3;2.2;;;;;;;;;;;;;
2022/10/20 13:27:16;;;;;;;4.4;2.4;;;;;;;;;;;;;
2022/10/20 13:29:42;;;;;;;4.5;2.3;;;;;;;;;;;;;
2022/10/20 13:32:06;;;;;;;4.5;2.7;;;;;;;;;;;;;
2022/10/20 13:34:32;;;;;;;3.9;2.5;;;;;;;;;;;;;
2022/10/20 13:37:00;;;;;;;2.8;2.4;;;;;;;;;;;;;
2022/10/20 13:39:25;;;;;;;2.6;2.2;;;;;;;;;;;;;
2022/10/20 13:41:51;;;;;;;3.2;2.4;;;;;;;;;;;;;
2022/10/20 13:44:16;;;;;;;4.2;2.3;;;;;;;;;;;;;
2022/10/20 13:46:41;;;;;;;3;2.3;;;;;;;;;;;;;
2022/10/20 13:49:07;;;;;;;2.6;2.3;;;;;;;;;;;;;
2022/10/20 13:51:33;;;;;;;2.9;2.2;;;;;;;;;;;;;
2022/10/20 13:53:58;;;;;;;2.8;2.4;;;;;;;;;;;;;
2022/10/20 13:56:23;;;;;;;3.8;2.6;;;;;;;;;;;;;
2022/10/20 13:58:49;;;;;;;4.4;2.6;;;;;;;;;;;;;
2022/10/20 14:01:15;;;;;;;3.8;2.8;;;;;;;;;;;;;
2022/10/20 14:03:39;;;;;;;3.5;2.8;;;;;;;;;;;;;
2022/10/20 14:06:06;;;;;;;4.4;2.7;;;;;;;;;;;;;
2022/10/20 14:08:34;;;;;;;3.7;2.5;;;;;;;;;;;;;
2022/10/20 14:10:59;;;;;;;4.2;2.7;;;;;;;;;;;;;
2022/10/20 14:13:24;;;;;;;4.4;2.6;;;;;;;;;;;;;
2022/10/20 14:15:49;;;;;;;3.4;2.4;;;;;;;;;;;;;
2022/10/20 14:18:14;;;;;;;4.7;2.6;;;;;;;;;;;;;
2022/10/20 14:20:40;;;;;;;4.3;2.7;;;;;;;;;;;;;
2022/10/20 14:23:05;;;;;;;4.9;2.7;;;;;;;;;;;;;
2022/10/20 14:25:30;;;;;;;4.3;3.2;;;;;;;;;;;;;
2022/10/20 14:27:55;;;;;;;7.6;3.8;;;;;;;;;;;;;
2022/10/20 14:30:20;;;;;;;4.6;2.5;;;;;;;;;;;;;
2022/10/20 14:32:45;;;;;;;4.2;2.5;;;;;;;;;;;;;
2022/10/20 14:35:11;;;;;;;7.6;2.8;;;;;;;;;;;;;
2022/10/20 14:37:37;;;;;;;4.1;2.4;;;;;;;;;;;;;
2022/10/20 14:40:02;;;;;;;4.3;2.6;;;;;;;;;;;;;
2022/10/20 14:42:27;;;;;;;5.4;2.5;;;;;;;;;;;;;
2022/10/20 14:44:52;;;;;;;5.7;2.7;;;;;;;;;;;;;
2022/10/20 14:47:18;;;;;;;5.8;2.8;;;;;;;;;;;;;
2022/10/20 14:49:45;;;;;;;5.5;3;;;;;;;;;;;;;
2022/10/20 14:52:09;;;;;;;4.8;2.8;;;;;;;;;;;;;
2022/10/20 14:54:34;;;;;;;3.7;2.8;;;;;;;;;;;;;
2022/10/20 14:57:01;;;;;;;3.1;2.4;;;;;;;;;;;;;
2022/10/20 14:59:26;;;;;;;3.3;2.9;;;;;;;;;;;;;
2022/10/20 15:01:53;;;;;;;10.7;7;;;;;;;;;;;;;
2022/10/20 15:04:18;;;;;;;11.4;6.9;;;;;;;;;;;;;
2022/10/20 15:06:44;;;;;;;7.8;5.3;;;;;;;;;;;;;
2022/10/20 15:09:09;;;;;;;6.3;3.4;;;;;;;;;;;;;
2022/10/20 15:11:34;;;;;;;7.6;3.8;;;;;;;;;;;;;
2022/10/20 15:13:59;;;;;;;4.1;2.9;;;;;;;;;;;;;
2022/10/20 15:16:24;;;;;;;5.8;3.1;;;;;;;;;;;;;
2022/10/20 15:18:49;;;;;;;8.3;4.1;;;;;;;;;;;;;
2022/10/20 15:21:15;;;;;;;8.2;6;;;;;;;;;;;;;
2022/10/20 15:23:43;;;;;;;9.9;6.4;;;;;;;;;;;;;
2022/10/20 15:26:08;;;;;;;3.7;3.1;;;;;;;;;;;;;
2022/10/20 15:28:34;;;;;;;6.2;4.1;;;;;;;;;;;;;
2022/10/20 15:30:59;;;;;;;5.2;3.4;;;;;;;;;;;;;
2022/10/20 15:33:24;;;;;;;4.8;3.1;;;;;;;;;;;;;
2022/10/20 15:35:53;;;;;;;5;3;;;;;;;;;;;;;
2022/10/20 15:38:18;;;;;;;5.4;3.2;;;;;;;;;;;;;
2022/10/20 15:40:43;;;;;;;6;3.1;;;;;;;;;;;;;
2022/10/20 15:43:08;;;;;;;4.2;3.1;;;;;;;;;;;;;
2022/10/20 15:45:34;;;;;;;4.1;3.2;;;;;;;;;;;;;
2022/10/20 15:47:59;;;;;;;5.6;3.3;;;;;;;;;;;;;
2022/10/20 15:50:26;;;;;;;3.9;3.2;;;;;;;;;;;;;
2022/10/20 15:52:52;;;;;;;7;3.6;;;;;;;;;;;;;
2022/10/20 15:55:21;;;;;;;4.1;3.4;;;;;;;;;;;;;
2022/10/20 15:57:43;;;;;;;5.3;3.4;;;;;;;;;;;;;
2022/10/20 16:00:15;;;;;;;6.4;3.6;;;;;;;;;;;;;
2022/10/20 16:02:41;;;;;;;6.7;3.3;;;;;;;;;;;;;
2022/10/20 16:05:06;;;;;;;5.5;3.8;;;;;;;;;;;;;
2022/10/20 16:08:02;;;;;;;7.3;3.8;;;;;;;;;;;;;
2022/10/20 16:10:29;;;;;;;5.6;3.5;;;;;;;;;;;;;
2022/10/20 16:12:54;;;;;;;6.5;3.9;;;;;;;;;;;;;
2022/10/20 16:15:19;;;;;;;10.2;5.5;;;;;;;;;;;;;
2022/10/20 16:17:45;;;;;;;6.9;5.5;;;;;;;;;;;;;
2022/10/20 16:20:11;;;;;;;11.8;8.6;;;;;;;;;;;;;
2022/10/20 16:22:36;;;;;;;9.9;7.5;;;;;;;;;;;;;
2022/10/20 16:25:02;;;;;;;7.1;6;;;;;;;;;;;;;
2022/10/20 16:27:26;;;;;;;10.2;6;;;;;;;;;;;;;
2022/10/20 16:29:52;;;;;;;7.2;4.6;;;;;;;;;;;;;
2022/10/20 16:32:17;;;;;;;5.8;4.3;;;;;;;;;;;;;
2022/10/20 16:34:44;;;;;;;6.2;4.4;;;;;;;;;;;;;
2022/10/20 16:37:09;;;;;;;6.1;4.2;;;;;;;;;;;;;
2022/10/20 16:39:34;;;;;;;6.4;4.4;;;;;;;;;;;;;
2022/10/20 16:42:00;;;;;;;6.8;4.4;;;;;;;;;;;;;
2022/10/20 16:44:26;;;;;;;8.2;3.8;;;;;;;;;;;;;
2022/10/20 16:46:51;;;;;;;6.1;3.7;;;;;;;;;;;;;
2022/10/20 16:49:16;;;;;;;4.9;3.8;;;;;;;;;;;;;
2022/10/20 16:51:41;;;;;;;8.3;5.5;;;;;;;;;;;;;
2022/10/20 16:54:08;;;;;;;8.3;4.8;;;;;;;;;;;;;
2022/10/20 16:56:33;;;;;;;6.1;4.7;;;;;;;;;;;;;
2022/10/20 16:58:59;;;;;;;7.3;4.5;;;;;;;;;;;;;
2022/10/20 17:01:24;;;;;;;6.6;4.4;;;;;;;;;;;;;
2022/10/20 17:03:49;;;;;;;7.4;4.6;;;;;;;;;;;;;
2022/10/20 17:06:14;;;;;;;6;4.2;;;;;;;;;;;;;
2022/10/20 17:08:40;;;;;;;7.8;4.4;;;;;;;;;;;;;
2022/10/20 17:11:05;;;;;;;6.4;4.4;;;;;;;;;;;;;
2022/10/20 17:13:32;;;;;;;11.5;5.7;;;;;;;;;;;;;
2022/10/20 17:15:57;;;;;;;9;6.4;;;;;;;;;;;;;
2022/10/20 17:18:22;;;;;;;14.7;8.1;;;;;;;;;;;;;
2022/10/20 17:20:47;;;;;;;12.6;8;;;;;;;;;;;;;
2022/10/20 17:23:14;;;;;;;14.9;8.6;;;;;;;;;;;;;
2022/10/20 17:25:39;;;;;;;18;9.5;;;;;;;;;;;;;
2022/10/20 17:28:05;;;;;;;11.7;8.9;;;;;;;;;;;;;
2022/10/20 17:30:30;;;;;;;15.2;8.1;;;;;;;;;;;;;
2022/10/20 17:32:55;;;;;;;11.5;7.4;;;;;;;;;;;;;
2022/10/20 17:35:20;;;;;;;6.9;4.4;;;;;;;;;;;;;
2022/10/20 17:37:48;;;;;;;6.5;4.3;;;;;;;;;;;;;
2022/10/20 17:40:13;;;;;;;9.7;5.3;;;;;;;;;;;;;
2022/10/20 17:42:40;;;;;;;7.7;5.3;;;;;;;;;;;;;
2022/10/20 17:45:05;;;;;;;7.5;4.5;;;;;;;;;;;;;
2022/10/20 17:47:30;;;;;;;5;4.2;;;;;;;;;;;;;
2022/10/20 17:49:55;;;;;;;6.4;5.1;;;;;;;;;;;;;
2022/10/20 17:52:21;;;;;;;6.8;5.1;;;;;;;;;;;;;
2022/10/20 17:54:46;;;;;;;7.2;5.1;;;;;;;;;;;;;
2022/10/20 17:57:12;;;;;;;10;6.2;;;;;;;;;;;;;
2022/10/20 17:59:37;;;;;;;11;6.5;;;;;;;;;;;;;
2022/10/20 18:02:04;;;;;;;11.6;6.5;;;;;;;;;;;;;
2022/10/20 18:04:51;;;;;;;9.2;6.8;;;;;;;;;;;;;
2022/10/20 18:07:16;;;;;;;6.9;5.3;;;;;;;;;;;;;
2022/10/20 18:09:42;;;;;;;11.3;5.9;;;;;;;;;;;;;
2022/10/20 18:12:10;;;;;;;9.1;5.1;;;;;;;;;;;;;
2022/10/20 18:14:35;;;;;;;7.7;5.3;;;;;;;;;;;;;
2022/10/20 18:17:02;;;;;;;9;5.6;;;;;;;;;;;;;
2022/10/20 18:19:27;;;;;;;10.2;5.8;;;;;;;;;;;;;
2022/10/20 18:21:53;;;;;;;8.4;5;;;;;;;;;;;;;
2022/10/20 18:24:19;;;;;;;6.9;5.2;;;;;;;;;;;;;
2022/10/20 18:26:44;;;;;;;11.1;6.6;;;;;;;;;;;;;
2022/10/20 18:29:09;;;;;;;9.4;6.5;;;;;;;;;;;;;
2022/10/20 18:31:37;;;;;;;9.1;5.9;;;;;;;;;;;;;
2022/10/20 18:34:02;;;;;;;10.3;6.4;;;;;;;;;;;;;
2022/10/20 18:36:30;;;;;;;9.6;6;;;;;;;;;;;;;
2022/10/20 18:38:55;;;;;;;8.3;6;;;;;;;;;;;;;
2022/10/20 18:41:23;;;;;;;11.4;6.3;;;;;;;;;;;;;
2022/10/20 18:43:48;;;;;;;8.9;6.4;;;;;;;;;;;;;
2022/10/20 18:46:13;;;;;;;10.1;6.6;;;;;;;;;;;;;
2022/10/20 18:48:39;;;;;;;8.1;6.1;;;;;;;;;;;;;
2022/10/20 18:51:04;;;;;;;9.4;6.2;;;;;;;;;;;;;
2022/10/20 18:53:29;;;;;;;12.3;7;;;;;;;;;;;;;
2022/10/20 18:55:54;;;;;;;10.5;6.3;;;;;;;;;;;;;
2022/10/20 18:58:19;;;;;;;9.2;5.9;;;;;;;;;;;;;
2022/10/20 19:00:45;;;;;;;8.4;5.9;;;;;;;;;;;;;
2022/10/20 19:03:13;;;;;;;10.4;6;;;;;;;;;;;;;
2022/10/20 19:05:38;;;;;;;8.8;6.2;;;;;;;;;;;;;
2022/10/20 19:08:05;;;;;;;9.8;5.8;;;;;;;;;;;;;
2022/10/20 19:10:30;;;;;;;12.8;5.9;;;;;;;;;;;;;
2022/10/20 19:12:55;;;;;;;10.4;6.3;;;;;;;;;;;;;
2022/10/20 19:15:20;;;;;;;10.4;7.6;;;;;;;;;;;;;
2022/10/20 19:17:47;;;;;;;11.2;7.4;;;;;;;;;;;;;
2022/10/20 19:20:12;;;;;;;13.5;8.3;;;;;;;;;;;;;
2022/10/20 19:22:40;;;;;;;15;7.5;;;;;;;;;;;;;
2022/10/20 19:25:04;;;;;;;12;7.8;;;;;;;;;;;;;
2022/10/20 19:27:30;;;;;;;13.5;8.1;;;;;;;;;;;;;
2022/10/20 19:29:56;;;;;;;19.1;10.7;;;;;;;;;;;;;
2022/10/20 19:32:23;;;;;;;15.7;9.5;;;;;;;;;;;;;
2022/10/20 19:34:48;;;;;;;15.9;9;;;;;;;;;;;;;
2022/10/20 19:37:13;;;;;;;18.7;9.4;;;;;;;;;;;;;
2022/10/20 19:39:38;;;;;;;19.8;10.9;;;;;;;;;;;;;
2022/10/20 19:42:03;;;;;;;17.2;10.7;;;;;;;;;;;;;
2022/10/20 19:44:29;;;;;;;15.2;8.5;;;;;;;;;;;;;
2022/10/20 19:46:57;;;;;;;16.1;9.3;;;;;;;;;;;;;
2022/10/20 19:49:22;;;;;;;13.5;8;;;;;;;;;;;;;
2022/10/20 19:51:48;;;;;;;12.9;6.9;;;;;;;;;;;;;
2022/10/20 19:54:15;;;;;;;10.4;6.1;;;;;;;;;;;;;
2022/10/20 19:56:40;;;;;;;7.9;5.4;;;;;;;;;;;;;
2022/10/20 19:59:05;;;;;;;11.6;5.8;;;;;;;;;;;;;
2022/10/20 20:01:30;;;;;;;9.2;5.8;;;;;;;;;;;;;
2022/10/20 20:03:55;;;;;;;9.2;5.2;;;;;;;;;;;;;
2022/10/20 20:09:18;;;;;;;6.3;4.9;;;;;;;;;;;;;
2022/10/20 20:11:43;;;;;;;8.7;5.2;;;;;;;;;;;;;
2022/10/20 20:14:09;;;;;;;8.8;5.4;;;;;;;;;;;;;
2022/10/20 20:16:33;;;;;;;9.5;5.9;;;;;;;;;;;;;
2022/10/20 20:18:59;;;;;;;9.7;5.1;;;;;;;;;;;;;
2022/10/20 20:21:24;;;;;;;8.9;4.6;;;;;;;;;;;;;
2022/10/20 20:23:50;;;;;;;10.5;5;;;;;;;;;;;;;
2022/10/20 20:26:15;;;;;;;7;4.9;;;;;;;;;;;;;
2022/10/20 20:28:42;;;;;;;8.2;5;;;;;;;;;;;;;
2022/10/20 20:31:07;;;;;;;6;4;;;;;;;;;;;;;
2022/10/20 20:33:32;;;;;;;8.3;4.9;;;;;;;;;;;;;
2022/10/20 20:35:58;;;;;;;6.5;4.1;;;;;;;;;;;;;
2022/10/20 20:38:22;;;;;;;7.3;3.8;;;;;;;;;;;;;
2022/10/20 20:40:48;;;;;;;8.9;4.1;;;;;;;;;;;;;
2022/10/20 20:43:13;;;;;;;6.9;4.4;;;;;;;;;;;;;
2022/10/20 20:45:38;;;;;;;7.2;3.7;;;;;;;;;;;;;
2022/10/20 20:48:12;;;;;;;7.1;3.5;;;;;;;;;;;;;
2022/10/20 20:50:39;;;;;;;6.9;3.9;;;;;;;;;;;;;
2022/10/20 20:53:04;;;;;;;9.4;3.5;;;;;;;;;;;;;
2022/10/20 20:55:29;;;;;;;5.5;3.5;;;;;;;;;;;;;